createdAt,value
2018-09-14T00:00:02.222Z,35.58
2018-09-14T00:02:36.071Z,32.60
2018-09-14T00:05:09.851Z,33.40
2018-09-14T00:07:49.135Z,36.80
2018-09-14T00:10:23.751Z,36.10
2018-09-14T00:12:57.519Z,41.78
2018-09-14T00:15:31.288Z,34.92
2018-09-14T00:18:17.687Z,41.05
2018-09-14T00:20:51.495Z,42.88
2018-09-14T00:23:25.223Z,36.95
2018-09-14T00:25:59.036Z,37.95
2018-09-14T00:28:32.807Z,35.60
2018-09-14T00:33:51.586Z,37.92
2018-09-14T00:36:25.554Z,41.63
2018-09-14T00:44:59.372Z,34.75
2018-09-14T00:47:33.911Z,36.72
2018-09-14T00:53:07.099Z,38.25
2018-09-14T00:55:41.071Z,40.15
2018-09-14T00:58:14.889Z,38.00
2018-09-14T01:03:48.556Z,34.97
2018-09-14T01:06:22.248Z,40.40
2018-09-14T01:14:54.752Z,36.20
2018-09-14T01:23:28.908Z,44.92
2018-09-14T01:29:04.307Z,35.38
2018-09-14T01:34:38.806Z,42.62
2018-09-14T01:37:12.580Z,44.28
2018-09-14T01:39:46.352Z,49.92
2018-09-14T01:42:38.086Z,51.78
2018-09-14T01:45:12.476Z,53.78
2018-09-14T01:47:46.338Z,47.10
2018-09-14T01:50:20.142Z,51.67
2018-09-14T01:52:53.855Z,45.95
2018-09-14T01:55:35.247Z,51.20
2018-09-14T01:58:09.751Z,50.53
2018-09-14T02:00:44.248Z,50.22
2018-09-14T02:12:38.175Z,35.90
2018-09-14T02:18:11.868Z,37.63
2018-09-14T02:20:46.384Z,39.67
2018-09-14T02:23:20.275Z,35.10
2018-09-14T02:28:53.498Z,37.72
2018-09-14T02:43:27.431Z,43.92
2018-09-14T02:46:01.197Z,45.25
2018-09-14T02:51:42.451Z,44.85
2018-09-14T02:54:16.321Z,44.85
2018-09-14T02:56:50.171Z,44.47
2018-09-14T02:59:24.796Z,44.58
2018-09-14T03:04:58.093Z,42.95
2018-09-14T03:10:30.776Z,42.30
2018-09-14T03:13:04.609Z,40.92
2018-09-14T03:15:38.557Z,43.65
2018-09-14T03:18:12.425Z,45.63
2018-09-14T03:20:49.187Z,45.60
2018-09-14T03:23:22.847Z,44.40
2018-09-14T03:25:56.599Z,44.55
2018-09-14T03:28:34.417Z,42.62
2018-09-14T03:31:08.107Z,51.80
2018-09-14T03:33:41.907Z,50.78
2018-09-14T03:36:15.724Z,45.63
2018-09-14T03:38:49.660Z,51.13
2018-09-14T03:41:23.421Z,45.72
2018-09-14T03:43:57.873Z,53.50
2018-09-14T03:46:31.694Z,50.08
2018-09-14T03:49:05.439Z,50.28
2018-09-14T03:51:39.216Z,50.22
2018-09-14T03:54:13.054Z,44.42
2018-09-14T04:02:45.585Z,49.28
2018-09-14T04:08:19.403Z,46.03
2018-09-14T04:13:52.832Z,49.58
2018-09-14T04:16:26.584Z,48.83
2018-09-14T04:22:00.426Z,48.33
2018-09-14T04:24:39.257Z,44.97
2018-09-14T04:27:12.924Z,48.00
2018-09-14T04:29:48.208Z,52.38
2018-09-14T04:32:21.853Z,52.72
2018-09-14T04:37:55.572Z,48.33
2018-09-14T04:40:29.390Z,50.90
2018-09-14T04:43:03.304Z,52.97
2018-09-14T04:51:36.587Z,48.40
2018-09-14T04:54:10.324Z,56.30
2018-09-14T04:56:44.222Z,52.30
2018-09-14T04:59:18.098Z,49.97
2018-09-14T05:01:52.010Z,55.67
2018-09-14T05:04:25.940Z,54.42
2018-09-14T05:07:11.644Z,55.10
2018-09-14T05:09:45.346Z,49.70
2018-09-14T05:12:20.136Z,54.67
2018-09-14T05:14:53.775Z,50.95
2018-09-14T05:17:46.034Z,55.05
2018-09-14T05:23:19.497Z,50.85
2018-09-14T05:25:53.483Z,51.55
2018-09-14T05:28:29.132Z,50.72
2018-09-14T05:31:07.757Z,54.33
2018-09-14T05:33:41.467Z,52.25
2018-09-14T05:39:15.503Z,58.97
2018-09-14T05:41:53.424Z,54.22
2018-09-14T05:44:27.139Z,49.53
2018-09-14T05:50:03.726Z,51.63
2018-09-14T05:52:37.563Z,59.05
2018-09-14T05:55:14.023Z,55.97
2018-09-14T05:57:47.763Z,55.03
2018-09-14T06:00:21.527Z,65.28
2018-09-14T06:02:55.367Z,53.35
2018-09-14T06:05:29.107Z,57.15
2018-09-14T06:08:02.939Z,62.47
2018-09-14T06:13:36.408Z,54.67
2018-09-14T06:16:11.094Z,55.97
2018-09-14T06:18:44.752Z,55.50
2018-09-14T06:21:18.581Z,66.22
2018-09-14T06:23:52.323Z,56.15
2018-09-14T06:26:26.138Z,51.30
2018-09-14T06:29:00.007Z,53.50
2018-09-14T06:40:35.101Z,54.97
2018-09-14T06:43:08.918Z,50.88
2018-09-14T06:45:44.692Z,50.53
2018-09-14T06:48:19.243Z,51.03
2018-09-14T06:50:53.003Z,53.10
2018-09-14T06:53:27.683Z,50.88
2018-09-14T06:56:01.524Z,46.20
2018-09-14T07:01:34.906Z,44.05
2018-09-14T07:04:08.680Z,49.17
2018-09-14T07:06:42.651Z,48.58
2018-09-14T07:09:16.548Z,46.22
2018-09-14T07:14:51.367Z,43.70
2018-09-14T07:17:26.307Z,44.05
2018-09-14T07:23:05.416Z,45.65
2018-09-14T07:25:39.548Z,45.22
2018-09-14T07:28:15.040Z,49.25
2018-09-14T07:33:49.286Z,48.53
2018-09-14T07:42:23.343Z,49.45
2018-09-14T07:44:57.984Z,51.75
2018-09-14T08:02:30.515Z,42.40
2018-09-14T08:11:04.319Z,41.85
2018-09-14T08:13:38.120Z,44.25
2018-09-14T08:19:11.911Z,45.40
2018-09-14T08:21:46.608Z,42.60
2018-09-14T08:27:20.195Z,41.30
2018-09-14T08:29:53.891Z,38.40
2018-09-14T08:32:27.788Z,42.72
2018-09-14T08:35:01.669Z,43.30
2018-09-14T08:37:35.508Z,38.70
2018-09-14T08:43:09.089Z,45.33
2018-09-14T08:45:44.512Z,35.55
2018-09-14T08:48:18.171Z,38.50
2018-09-14T08:53:51.422Z,38.67
2018-09-14T08:56:26.204Z,37.97
2018-09-14T09:08:00.281Z,30.15
2018-09-14T09:10:34.927Z,32.92
2018-09-14T09:13:08.775Z,33.85
2018-09-14T09:15:43.419Z,30.05
2018-09-14T09:18:17.179Z,28.75
2018-09-14T09:23:53.017Z,28.97
2018-09-14T09:26:27.142Z,30.83
2018-09-14T09:32:00.771Z,22.50
2018-09-14T09:34:34.538Z,26.77
2018-09-14T09:37:08.363Z,25.30
2018-09-14T09:39:42.160Z,22.47
2018-09-14T09:42:39.552Z,23.93
2018-09-14T09:45:14.159Z,27.40
2018-09-14T09:47:48.162Z,25.00
2018-09-14T09:50:22.019Z,22.30
2018-09-14T09:52:56.611Z,23.70
2018-09-14T09:58:29.804Z,23.53
2018-09-14T10:01:08.294Z,23.07
2018-09-14T10:03:42.949Z,27.97
2018-09-14T10:06:17.469Z,23.23
2018-09-14T10:14:53.407Z,24.87
2018-09-14T10:17:27.214Z,21.70
2018-09-14T10:20:01.019Z,21.60
2018-09-14T10:22:41.073Z,23.77
2018-09-14T10:25:15.451Z,21.07
2018-09-14T10:30:48.876Z,19.23
2018-09-14T10:33:22.710Z,28.53
2018-09-14T10:35:57.426Z,18.63
2018-09-14T10:38:31.247Z,23.10
2018-09-14T10:41:05.187Z,24.80
2018-09-14T10:43:39.101Z,21.20
2018-09-14T10:46:12.968Z,20.57
2018-09-14T10:51:48.210Z,20.60
2018-09-14T10:54:21.953Z,23.17
2018-09-14T11:08:54.966Z,22.10
2018-09-14T11:11:28.811Z,20.60
2018-09-14T11:19:41.436Z,20.00
2018-09-14T11:22:38.912Z,19.83
2018-09-14T11:25:13.593Z,21.47
2018-09-14T11:27:47.451Z,18.17
2018-09-14T11:33:20.401Z,18.10
2018-09-14T11:36:00.560Z,19.83
2018-09-14T11:38:34.535Z,19.80
2018-09-14T11:41:11.199Z,22.07
2018-09-14T11:43:52.742Z,20.43
2018-09-14T11:46:27.491Z,21.77
2018-09-14T12:01:00.939Z,18.40
2018-09-14T12:06:35.075Z,20.57
2018-09-14T12:09:08.955Z,21.07
2018-09-14T12:11:43.632Z,23.97
2018-09-14T12:14:17.454Z,22.07
2018-09-14T12:16:52.332Z,19.27
2018-09-14T12:19:28.224Z,16.73
2018-09-14T12:25:01.870Z,17.60
2018-09-14T12:27:35.689Z,15.60
2018-09-14T12:30:10.270Z,17.03
2018-09-14T12:32:44.048Z,16.27
2018-09-14T12:38:16.886Z,14.83
2018-09-14T12:40:50.703Z,13.00
2018-09-14T12:43:24.605Z,15.63
2018-09-14T12:45:59.247Z,15.33
2018-09-14T12:48:33.133Z,15.90
2018-09-14T12:51:07.070Z,20.83
2018-09-14T12:59:04.790Z,16.17
2018-09-14T13:01:43.683Z,15.30
2018-09-14T13:04:20.953Z,14.20
2018-09-14T13:12:54.623Z,12.17
2018-09-14T13:15:29.115Z,18.40
2018-09-14T13:18:03.781Z,17.03
2018-09-14T13:20:37.505Z,13.53
2018-09-14T13:25:53.716Z,13.93
2018-09-14T13:31:31.170Z,11.47
2018-09-14T13:34:07.899Z,10.97
2018-09-14T13:36:41.587Z,14.50
2018-09-14T13:39:15.634Z,10.97
2018-09-14T13:41:50.082Z,11.10
2018-09-14T13:44:25.124Z,12.70
2018-09-14T13:46:58.871Z,11.97
2018-09-14T13:52:39.833Z,13.40
2018-09-14T13:55:14.753Z,10.13
2018-09-14T14:00:48.563Z,11.93
2018-09-14T14:03:24.410Z,12.33
2018-09-14T14:14:57.764Z,11.93
2018-09-14T14:17:35.314Z,15.73
2018-09-14T14:23:08.493Z,14.20
2018-09-14T14:25:42.391Z,11.73
2018-09-14T14:34:15.902Z,14.17
2018-09-14T14:36:50.583Z,11.33
2018-09-14T14:39:24.431Z,13.13
2018-09-14T14:41:58.202Z,12.80
2018-09-14T14:44:32.823Z,13.20
2018-09-14T14:47:07.315Z,14.37
2018-09-14T14:49:41.996Z,16.70
2018-09-14T14:52:17.708Z,19.53
2018-09-14T14:54:51.513Z,19.10
2018-09-14T14:57:27.099Z,21.20
2018-09-14T15:00:00.804Z,23.37
2018-09-14T15:02:40.324Z,24.50
2018-09-14T15:08:13.991Z,26.17
2018-09-14T15:10:48.017Z,23.13
2018-09-14T15:13:21.768Z,27.40
2018-09-14T15:16:06.556Z,22.97
2018-09-14T15:21:41.268Z,21.50
2018-09-14T15:27:14.910Z,24.73
2018-09-14T15:29:49.493Z,20.40
2018-09-14T15:32:24.254Z,23.03
2018-09-14T15:34:58.103Z,20.23
2018-09-14T15:37:31.898Z,21.93
2018-09-14T15:40:05.721Z,24.03
2018-09-14T15:42:40.913Z,23.40
2018-09-14T15:45:14.723Z,22.97
2018-09-14T15:47:48.490Z,21.30
2018-09-14T15:50:24.419Z,23.40
2018-09-14T15:52:59.095Z,22.73
2018-09-14T15:55:32.956Z,22.37
2018-09-14T15:58:06.747Z,24.77
2018-09-14T16:03:40.588Z,21.10
2018-09-14T16:09:22.148Z,20.87
2018-09-14T16:11:55.935Z,22.43
2018-09-14T16:14:30.583Z,22.43
2018-09-14T16:20:04.728Z,23.00
2018-09-14T16:22:40.175Z,19.73
2018-09-14T16:25:14.860Z,19.47
2018-09-14T16:27:48.649Z,20.93
2018-09-14T16:30:23.170Z,19.70
2018-09-14T16:32:57.473Z,21.13
2018-09-14T16:44:33.614Z,15.80
2018-09-14T16:47:07.510Z,18.43
2018-09-14T16:49:41.267Z,16.50
2018-09-14T16:52:39.224Z,16.77
2018-09-14T16:55:13.053Z,18.20
2018-09-14T17:03:46.000Z,16.90
2018-09-14T17:12:19.361Z,17.10
2018-09-14T17:17:35.016Z,17.90
2018-09-14T17:20:08.870Z,19.87
2018-09-14T17:22:42.725Z,18.60
2018-09-14T17:28:16.327Z,18.87
2018-09-14T17:30:50.032Z,21.93
2018-09-14T17:33:24.571Z,22.27
2018-09-14T17:42:01.987Z,19.60
2018-09-14T17:44:37.654Z,17.85
2018-09-14T17:47:12.083Z,16.17
2018-09-14T17:49:45.960Z,18.57
2018-09-14T17:52:19.637Z,18.20
2018-09-14T17:54:55.164Z,18.07
2018-09-14T17:57:28.807Z,17.50
2018-09-14T18:03:01.961Z,16.27
2018-09-14T18:08:35.525Z,18.62
2018-09-14T18:14:09.235Z,18.87
2018-09-14T18:19:44.902Z,17.02
2018-09-14T18:22:38.553Z,17.47
2018-09-14T18:25:15.315Z,18.23
2018-09-14T18:27:49.285Z,17.77
2018-09-14T18:30:22.912Z,18.73
2018-09-14T18:32:56.547Z,15.43
2018-09-14T18:35:30.249Z,16.70
2018-09-14T18:38:05.975Z,15.97
2018-09-14T18:43:39.272Z,14.05
2018-09-14T18:46:13.917Z,16.10
2018-09-14T18:48:47.720Z,15.32
2018-09-14T18:54:22.192Z,12.30
2018-09-14T18:56:55.983Z,13.88
2018-09-14T18:59:31.483Z,16.15
2018-09-14T19:02:05.239Z,16.50
2018-09-14T19:07:38.939Z,13.40
2018-09-14T19:13:12.141Z,13.50
2018-09-14T19:21:45.819Z,14.45
2018-09-14T19:24:21.335Z,12.15
2018-09-14T19:32:54.834Z,16.77
2018-09-14T19:35:29.413Z,13.77
2018-09-14T19:41:02.589Z,12.05
2018-09-14T19:43:36.352Z,14.60
2018-09-14T19:46:10.039Z,12.95
2018-09-14T20:00:43.283Z,15.75
2018-09-14T20:03:17.924Z,14.02
2018-09-14T20:11:52.701Z,13.65
2018-09-14T20:14:26.496Z,17.83
2018-09-14T20:22:59.781Z,13.88
2018-09-14T20:28:34.516Z,14.35
2018-09-14T20:31:08.295Z,15.75
2018-09-14T20:33:42.817Z,14.27
2018-09-14T20:36:16.610Z,14.07
2018-09-14T20:38:50.329Z,13.40
2018-09-14T20:47:24.206Z,14.13
2018-09-14T20:49:57.955Z,13.60
2018-09-14T20:52:40.292Z,14.93
2018-09-14T20:55:14.041Z,14.10
2018-09-14T20:57:47.775Z,11.85
2018-09-14T21:03:21.033Z,11.57
2018-09-14T21:08:55.623Z,11.55
2018-09-14T21:17:29.423Z,11.45
2018-09-14T21:20:03.154Z,13.95
2018-09-14T21:22:40.778Z,12.98
2018-09-14T21:31:14.198Z,12.90
2018-09-14T21:36:48.839Z,15.60
2018-09-14T21:39:22.578Z,14.23
2018-09-14T21:41:57.107Z,13.27
2018-09-14T21:44:30.771Z,13.23
2018-09-14T21:47:04.545Z,12.32
2018-09-14T21:49:38.390Z,13.73
2018-09-14T21:52:12.135Z,11.90
2018-09-14T21:54:46.016Z,11.90
2018-09-14T21:57:19.827Z,12.15
2018-09-14T21:59:53.837Z,12.50
2018-09-14T22:02:40.783Z,13.00
2018-09-14T22:08:13.984Z,11.65
2018-09-14T22:13:49.559Z,11.50
2018-09-14T22:16:24.142Z,12.20
2018-09-14T22:27:57.574Z,11.98
2018-09-14T22:33:31.314Z,11.18
2018-09-14T22:36:05.220Z,12.63
2018-09-14T22:41:39.093Z,11.68
2018-09-14T22:44:13.686Z,12.65
2018-09-14T22:46:47.530Z,12.57
2018-09-14T22:52:41.043Z,11.80
2018-09-14T22:58:14.105Z,11.73
2018-09-14T23:03:47.519Z,13.00
2018-09-14T23:09:22.102Z,11.12
2018-09-14T23:23:54.627Z,12.98
2018-09-14T23:26:29.244Z,12.23
2018-09-14T23:32:03.697Z,11.80
2018-09-14T23:43:37.067Z,13.88
2018-09-14T23:46:10.787Z,11.90
2018-09-14T23:48:45.406Z,11.55
2018-09-14T23:54:18.389Z,10.93
2018-09-14T23:59:52.331Z,10.73
